sensor_id;sensor_type;location;lat;lon;timestamp;P1;durP1;ratioP1;P2;durP2;ratioP2
74473;SDS011;62922;-6.168;106.796;2023-06-14T00:01:26;45.58;;;33.63;;
74473;SDS011;62922;-6.168;106.796;2023-06-14T00:03:52;48.30;;;33.83;;
74473;SDS011;62922;-6.168;106.796;2023-06-14T00:06:19;41.83;;;31.98;;
74473;SDS011;62922;-6.168;106.796;2023-06-14T00:08:45;63.67;;;35.92;;
74473;SDS011;62922;-6.168;106.796;2023-06-14T00:11:12;78.95;;;39.20;;
74473;SDS011;62922;-6.168;106.796;2023-06-14T00:13:38;104.05;;;52.47;;
74473;SDS011;62922;-6.168;106.796;2023-06-14T00:16:07;174.13;;;75.95;;
74473;SDS011;62922;-6.168;106.796;2023-06-14T00:18:36;216.93;;;91.88;;
74473;SDS011;62922;-6.168;106.796;2023-06-14T00:21:03;219.43;;;100.30;;
74473;SDS011;62922;-6.168;106.796;2023-06-14T00:23:30;258.75;;;113.00;;
74473;SDS011;62922;-6.168;106.796;2023-06-14T00:25:59;294.23;;;124.75;;
74473;SDS011;62922;-6.168;106.796;2023-06-14T00:28:25;293.48;;;130.32;;
74473;SDS011;62922;-6.168;106.796;2023-06-14T00:30:51;302.48;;;129.35;;
74473;SDS011;62922;-6.168;106.796;2023-06-14T00:33:21;268.63;;;124.43;;
74473;SDS011;62922;-6.168;106.796;2023-06-14T00:35:47;291.73;;;131.27;;
74473;SDS011;62922;-6.168;106.796;2023-06-14T00:38:13;262.17;;;121.43;;
74473;SDS011;62922;-6.168;106.796;2023-06-14T00:40:40;273.40;;;125.07;;
74473;SDS011;62922;-6.168;106.796;2023-06-14T13:05:01;49.90;;;28.33;;
74473;SDS011;62922;-6.168;106.796;2023-06-14T13:07:29;49.40;;;30.05;;
74473;SDS011;62922;-6.168;106.796;2023-06-14T13:09:56;44.50;;;29.83;;
74473;SDS011;62922;-6.168;106.796;2023-06-14T13:12:22;54.03;;;30.30;;
74473;SDS011;62922;-6.168;106.796;2023-06-14T13:14:49;49.17;;;28.80;;
74473;SDS011;62922;-6.168;106.796;2023-06-14T13:17:16;47.00;;;28.85;;
74473;SDS011;62922;-6.168;106.796;2023-06-14T13:19:42;45.22;;;28.20;;
74473;SDS011;62922;-6.168;106.796;2023-06-14T13:22:11;57.85;;;29.45;;
74473;SDS011;62922;-6.168;106.796;2023-06-14T13:24:37;61.90;;;30.40;;
74473;SDS011;62922;-6.168;106.796;2023-06-14T13:27:03;47.20;;;28.55;;
74473;SDS011;62922;-6.168;106.796;2023-06-14T13:29:31;42.28;;;28.67;;
74473;SDS011;62922;-6.168;106.796;2023-06-14T13:31:58;50.63;;;30.23;;
74473;SDS011;62922;-6.168;106.796;2023-06-14T13:34:26;49.63;;;28.85;;
74473;SDS011;62922;-6.168;106.796;2023-06-14T13:36:52;44.50;;;29.23;;
74473;SDS011;62922;-6.168;106.796;2023-06-14T13:39:19;40.03;;;28.17;;
74473;SDS011;62922;-6.168;106.796;2023-06-14T13:41:45;51.25;;;29.15;;
74473;SDS011;62922;-6.168;106.796;2023-06-14T13:44:14;50.53;;;30.80;;
74473;SDS011;62922;-6.168;106.796;2023-06-14T13:46:44;43.92;;;31.48;;
74473;SDS011;62922;-6.168;106.796;2023-06-14T13:49:10;48.67;;;30.85;;
74473;SDS011;62922;-6.168;106.796;2023-06-14T13:51:37;42.05;;;31.35;;
74473;SDS011;62922;-6.168;106.796;2023-06-14T13:54:04;48.03;;;30.35;;
74473;SDS011;62922;-6.168;106.796;2023-06-14T13:56:33;41.42;;;30.65;;
74473;SDS011;62922;-6.168;106.796;2023-06-14T13:58:59;48.55;;;31.30;;
74473;SDS011;62922;-6.168;106.796;2023-06-14T14:01:25;46.72;;;30.75;;
74473;SDS011;62922;-6.168;106.796;2023-06-14T14:03:54;41.05;;;30.23;;
74473;SDS011;62922;-6.168;106.796;2023-06-14T14:06:20;41.92;;;30.08;;
74473;SDS011;62922;-6.168;106.796;2023-06-14T14:08:46;37.30;;;28.73;;
74473;SDS011;62922;-6.168;106.796;2023-06-14T14:11:13;43.58;;;29.98;;
74473;SDS011;62922;-6.168;106.796;2023-06-14T14:13:41;46.22;;;30.75;;
74473;SDS011;62922;-6.168;106.796;2023-06-14T14:16:10;43.92;;;30.63;;
74473;SDS011;62922;-6.168;106.796;2023-06-14T14:18:37;41.45;;;28.60;;
74473;SDS011;62922;-6.168;106.796;2023-06-14T14:21:03;45.65;;;30.17;;
74473;SDS011;62922;-6.168;106.796;2023-06-14T14:23:30;42.03;;;29.30;;
74473;SDS011;62922;-6.168;106.796;2023-06-14T14:25:56;43.05;;;30.45;;
74473;SDS011;62922;-6.168;106.796;2023-06-14T14:28:23;41.45;;;29.80;;
74473;SDS011;62922;-6.168;106.796;2023-06-14T14:30:49;41.30;;;29.15;;
74473;SDS011;62922;-6.168;106.796;2023-06-14T14:33:16;47.25;;;28.98;;
74473;SDS011;62922;-6.168;106.796;2023-06-14T14:35:43;38.55;;;28.55;;
74473;SDS011;62922;-6.168;106.796;2023-06-14T14:38:11;36.08;;;27.75;;
74473;SDS011;62922;-6.168;106.796;2023-06-14T14:40:39;40.17;;;26.85;;
74473;SDS011;62922;-6.168;106.796;2023-06-14T14:43:08;36.15;;;27.35;;
74473;SDS011;62922;-6.168;106.796;2023-06-14T14:45:35;35.20;;;27.02;;
74473;SDS011;62922;-6.168;106.796;2023-06-14T14:48:02;38.05;;;26.40;;
74473;SDS011;62922;-6.168;106.796;2023-06-14T14:50:28;39.72;;;28.10;;
74473;SDS011;62922;-6.168;106.796;2023-06-14T14:52:55;42.60;;;28.45;;
74473;SDS011;62922;-6.168;106.796;2023-06-14T14:55:21;38.63;;;28.15;;
74473;SDS011;62922;-6.168;106.796;2023-06-14T14:57:48;35.85;;;27.25;;
74473;SDS011;62922;-6.168;106.796;2023-06-14T15:00:15;39.00;;;28.35;;
74473;SDS011;62922;-6.168;106.796;2023-06-14T15:02:42;41.92;;;27.73;;
74473;SDS011;62922;-6.168;106.796;2023-06-14T15:05:08;35.67;;;27.95;;
74473;SDS011;62922;-6.168;106.796;2023-06-14T15:07:34;34.65;;;25.52;;
74473;SDS011;62922;-6.168;106.796;2023-06-14T15:10:05;35.20;;;25.42;;
74473;SDS011;62922;-6.168;106.796;2023-06-14T15:12:33;35.10;;;24.30;;
74473;SDS011;62922;-6.168;106.796;2023-06-14T15:15:00;31.45;;;24.23;;
74473;SDS011;62922;-6.168;106.796;2023-06-14T15:17:27;36.40;;;26.13;;
74473;SDS011;62922;-6.168;106.796;2023-06-14T15:19:54;45.47;;;27.88;;
74473;SDS011;62922;-6.168;106.796;2023-06-14T15:22:20;43.50;;;26.90;;
74473;SDS011;62922;-6.168;106.796;2023-06-14T15:24:47;60.90;;;29.60;;
74473;SDS011;62922;-6.168;106.796;2023-06-14T15:27:13;46.78;;;30.33;;
74473;SDS011;62922;-6.168;106.796;2023-06-14T15:29:41;45.60;;;28.52;;
74473;SDS011;62922;-6.168;106.796;2023-06-14T15:32:08;41.80;;;28.35;;
74473;SDS011;62922;-6.168;106.796;2023-06-14T15:34:34;54.70;;;29.95;;
74473;SDS011;62922;-6.168;106.796;2023-06-14T15:37:03;41.47;;;28.35;;
74473;SDS011;62922;-6.168;106.796;2023-06-14T15:39:30;52.10;;;30.95;;
74473;SDS011;62922;-6.168;106.796;2023-06-14T15:41:57;51.67;;;29.00;;
74473;SDS011;62922;-6.168;106.796;2023-06-14T15:44:25;54.85;;;31.42;;
74473;SDS011;62922;-6.168;106.796;2023-06-14T15:46:51;48.58;;;29.48;;
74473;SDS011;62922;-6.168;106.796;2023-06-14T15:49:18;44.97;;;30.90;;
74473;SDS011;62922;-6.168;106.796;2023-06-14T15:51:44;45.33;;;29.85;;
74473;SDS011;62922;-6.168;106.796;2023-06-14T15:54:11;44.10;;;30.52;;
74473;SDS011;62922;-6.168;106.796;2023-06-14T15:56:37;40.83;;;29.15;;
74473;SDS011;62922;-6.168;106.796;2023-06-14T15:59:03;48.42;;;30.80;;
74473;SDS011;62922;-6.168;106.796;2023-06-14T23:30:50;49.30;;;34.70;;
74473;SDS011;62922;-6.168;106.796;2023-06-14T23:33:19;50.47;;;34.97;;
74473;SDS011;62922;-6.168;106.796;2023-06-14T23:35:50;52.85;;;35.85;;
74473;SDS011;62922;-6.168;106.796;2023-06-14T23:38:17;49.38;;;35.65;;
74473;SDS011;62922;-6.168;106.796;2023-06-14T23:40:45;49.10;;;35.38;;
74473;SDS011;62922;-6.168;106.796;2023-06-14T23:43:14;53.08;;;36.78;;
74473;SDS011;62922;-6.168;106.796;2023-06-14T23:45:45;50.05;;;35.13;;
74473;SDS011;62922;-6.168;106.796;2023-06-14T23:48:14;54.45;;;37.78;;
74473;SDS011;62922;-6.168;106.796;2023-06-14T23:50:41;56.35;;;37.55;;
74473;SDS011;62922;-6.168;106.796;2023-06-14T23:53:07;49.85;;;36.72;;
74473;SDS011;62922;-6.168;106.796;2023-06-14T23:55:35;50.13;;;37.83;;
74473;SDS011;62922;-6.168;106.796;2023-06-14T23:58:03;56.22;;;39.00;;
